Friendship, New York
Current Conditions -  °F | °C
As of 1:56 PM on Friday 21 Nov 2014 (Local Time) from KELZ Reporting Station
Light Snow Light Snow  
Wind Chill: 10°   Ceiling: 2700
Heat Index: 22°   Visibility: 4mi
Dew Point: 14°   Wind: 12mph
Humidity: 72%   Direction: 270°W
Pressure: 30.3"   Gusts: NA
Location:  42.21°N, 78.14°W
Report Text: KELZ 211856Z AUTO 27010KT 4SM -SN SCT022 BKN027 OVC045 M06/M10 A3030 RMK AO2 SNB02E14B35 SLP298 P0000 T10561100
Loading
Personal Weather Stations






























Interactive Weather Map New forecast layout! Learn more

10-Day Weather Forecast

Advertisements
Track Severe Weather on mobile